sensor_id;sensor_type;location;lat;lon;timestamp;pressure;altitude;pressure_sealevel;temperature;humidity
64086;BME280;50333;47.436;21.390;2023-03-04T00:02:18;100759.66;;;7.23;69.71
64086;BME280;50333;47.436;21.390;2023-03-04T00:04:46;100752.19;;;6.44;71.69
64086;BME280;50333;47.436;21.390;2023-03-04T00:07:13;100751.19;;;6.69;71.80
64086;BME280;50333;47.436;21.390;2023-03-04T00:09:44;100754.19;;;6.18;72.97
64086;BME280;50333;47.436;21.390;2023-03-04T00:12:12;100751.59;;;6.30;73.29
64086;BME280;50333;47.436;21.390;2023-03-04T00:14:40;100744.19;;;6.34;71.93
64086;BME280;50333;47.436;21.390;2023-03-04T00:17:08;100746.94;;;6.63;70.76
64086;BME280;50333;47.436;21.390;2023-03-04T00:19:36;100743.66;;;6.55;70.90
64086;BME280;50333;47.436;21.390;2023-03-04T00:22:04;100742.13;;;6.12;72.17
64086;BME280;50333;47.436;21.390;2023-03-04T00:24:32;100740.91;;;6.27;71.34
64086;BME280;50333;47.436;21.390;2023-03-04T00:27:00;100736.78;;;6.61;70.56
64086;BME280;50333;47.436;21.390;2023-03-04T00:29:27;100740.38;;;6.36;71.58
64086;BME280;50333;47.436;21.390;2023-03-04T00:31:56;100734.72;;;6.28;71.34
64086;BME280;50333;47.436;21.390;2023-03-04T00:34:25;100732.06;;;6.04;71.88
64086;BME280;50333;47.436;21.390;2023-03-04T00:36:52;100737.59;;;6.08;71.36
64086;BME280;50333;47.436;21.390;2023-03-04T00:39:21;100738.19;;;5.91;71.82
64086;BME280;50333;47.436;21.390;2023-03-04T00:41:49;100731.69;;;6.42;70.21
64086;BME280;50333;47.436;21.390;2023-03-04T00:44:17;100724.41;;;6.39;70.17
64086;BME280;50333;47.436;21.390;2023-03-04T00:46:45;100725.28;;;5.73;71.87
64086;BME280;50333;47.436;21.390;2023-03-04T00:49:13;100722.84;;;5.78;70.53
64086;BME280;50333;47.436;21.390;2023-03-04T00:51:41;100717.31;;;5.44;72.63
64086;BME280;50333;47.436;21.390;2023-03-04T00:54:09;100711.22;;;6.29;69.96
64086;BME280;50333;47.436;21.390;2023-03-04T00:56:36;100716.03;;;6.26;69.78
64086;BME280;50333;47.436;21.390;2023-03-04T00:59:04;100709.13;;;5.96;70.18
64086;BME280;50333;47.436;21.390;2023-03-04T01:01:32;100703.88;;;5.84;70.73
64086;BME280;50333;47.436;21.390;2023-03-04T01:04:00;100702.41;;;5.88;70.09
64086;BME280;50333;47.436;21.390;2023-03-04T01:06:28;100703.91;;;5.65;70.87
64086;BME280;50333;47.436;21.390;2023-03-04T01:08:56;100696.41;;;5.76;70.30
64086;BME280;50333;47.436;21.390;2023-03-04T01:11:23;100700.88;;;5.01;73.03
64086;BME280;50333;47.436;21.390;2023-03-04T01:13:51;100699.06;;;4.83;73.85
64086;BME280;50333;47.436;21.390;2023-03-04T01:16:19;100694.34;;;5.36;72.08
64086;BME280;50333;47.436;21.390;2023-03-04T01:18:47;100695.38;;;5.65;70.66
64086;BME280;50333;47.436;21.390;2023-03-04T01:21:15;100685.81;;;5.17;71.88
64086;BME280;50333;47.436;21.390;2023-03-04T01:23:42;100692.62;;;4.74;74.25
64086;BME280;50333;47.436;21.390;2023-03-04T01:26:11;100693.81;;;4.53;74.65
64086;BME280;50333;47.436;21.390;2023-03-04T01:28:38;100682.44;;;4.98;73.46
64086;BME280;50333;47.436;21.390;2023-03-04T01:31:06;100692.56;;;4.56;74.97
64086;BME280;50333;47.436;21.390;2023-03-04T01:33:34;100680.41;;;4.81;73.18
64086;BME280;50333;47.436;21.390;2023-03-04T01:36:03;100685.88;;;4.91;72.24
64086;BME280;50333;47.436;21.390;2023-03-04T01:38:31;100680.34;;;4.19;74.50
64086;BME280;50333;47.436;21.390;2023-03-04T01:41:01;100687.41;;;3.73;78.37
64086;BME280;50333;47.436;21.390;2023-03-04T01:43:29;100677.94;;;3.99;77.98
64086;BME280;50333;47.436;21.390;2023-03-04T01:45:57;100670.94;;;4.31;75.96
64086;BME280;50333;47.436;21.390;2023-03-04T01:48:30;100674.25;;;4.39;75.68
64086;BME280;50333;47.436;21.390;2023-03-04T01:51:00;100662.16;;;4.39;76.22
64086;BME280;50333;47.436;21.390;2023-03-04T01:53:31;100678.13;;;3.20;81.12
64086;BME280;50333;47.436;21.390;2023-03-04T01:56:04;100672.03;;;3.53;79.53
64086;BME280;50333;47.436;21.390;2023-03-04T01:58:37;100671.88;;;4.12;78.16
64086;BME280;50333;47.436;21.390;2023-03-04T02:01:05;100668.13;;;4.33;76.73
64086;BME280;50333;47.436;21.390;2023-03-04T02:03:33;100664.88;;;3.94;77.43
64086;BME280;50333;47.436;21.390;2023-03-04T02:06:01;100665.41;;;4.28;77.83
64086;BME280;50333;47.436;21.390;2023-03-04T02:08:29;100671.00;;;3.61;79.45
64086;BME280;50333;47.436;21.390;2023-03-04T02:10:57;100671.34;;;4.28;77.64
64086;BME280;50333;47.436;21.390;2023-03-04T02:13:25;100664.00;;;4.32;76.52
64086;BME280;50333;47.436;21.390;2023-03-04T02:15:52;100663.72;;;4.40;76.71
64086;BME280;50333;47.436;21.390;2023-03-04T02:18:22;100667.41;;;4.26;76.68
64086;BME280;50333;47.436;21.390;2023-03-04T02:23:46;100647.37;;;4.46;77.13
64086;BME280;50333;47.436;21.390;2023-03-04T02:26:19;100659.47;;;4.27;77.18
64086;BME280;50333;47.436;21.390;2023-03-04T02:28:50;100650.34;;;4.68;75.76
64086;BME280;50333;47.436;21.390;2023-03-04T02:31:42;100644.34;;;4.31;76.20
64086;BME280;50333;47.436;21.390;2023-03-04T02:34:13;100640.41;;;4.47;75.98
64086;BME280;50333;47.436;21.390;2023-03-04T02:36:43;100645.12;;;4.31;76.50
64086;BME280;50333;47.436;21.390;2023-03-04T02:39:26;100633.91;;;4.63;75.77
64086;BME280;50333;47.436;21.390;2023-03-04T02:41:56;100630.84;;;4.29;75.75
64086;BME280;50333;47.436;21.390;2023-03-04T02:44:29;100631.53;;;4.43;76.12
64086;BME280;50333;47.436;21.390;2023-03-04T02:46:58;100636.44;;;4.26;76.66
64086;BME280;50333;47.436;21.390;2023-03-04T02:49:27;100633.06;;;4.00;77.24
64086;BME280;50333;47.436;21.390;2023-03-04T02:52:07;100635.38;;;4.08;77.08
64086;BME280;50333;47.436;21.390;2023-03-04T02:54:36;100632.34;;;4.18;76.78
64086;BME280;50333;47.436;21.390;2023-03-04T02:57:06;100623.56;;;4.44;75.86
64086;BME280;50333;47.436;21.390;2023-03-04T02:59:36;100612.59;;;4.49;75.64
64086;BME280;50333;47.436;21.390;2023-03-04T03:02:05;100622.00;;;3.93;77.56
64086;BME280;50333;47.436;21.390;2023-03-04T03:04:36;100615.03;;;3.93;76.87
64086;BME280;50333;47.436;21.390;2023-03-04T03:07:06;100608.75;;;4.14;76.03
64086;BME280;50333;47.436;21.390;2023-03-04T03:09:35;100613.91;;;2.60;80.92
64086;BME280;50333;47.436;21.390;2023-03-04T03:12:02;100614.81;;;2.93;80.67
64086;BME280;50333;47.436;21.390;2023-03-04T03:14:31;100614.00;;;3.44;79.80
64086;BME280;50333;47.436;21.390;2023-03-04T03:16:59;100619.19;;;2.86;82.42
64086;BME280;50333;47.436;21.390;2023-03-04T03:19:27;100616.69;;;2.59;82.98
64086;BME280;50333;47.436;21.390;2023-03-04T03:21:55;100618.84;;;2.69;83.82
64086;BME280;50333;47.436;21.390;2023-03-04T03:24:22;100622.66;;;3.11;82.39
64086;BME280;50333;47.436;21.390;2023-03-04T03:26:50;100610.09;;;3.28;80.88
64086;BME280;50333;47.436;21.390;2023-03-04T03:29:18;100609.13;;;3.29;80.80
64086;BME280;50333;47.436;21.390;2023-03-04T03:31:46;100605.25;;;3.07;82.19
64086;BME280;50333;47.436;21.390;2023-03-04T03:34:13;100604.13;;;3.34;82.54
64086;BME280;50333;47.436;21.390;2023-03-04T03:36:41;100601.34;;;3.36;82.41
64086;BME280;50333;47.436;21.390;2023-03-04T03:39:09;100595.47;;;3.22;82.40
64086;BME280;50333;47.436;21.390;2023-03-04T03:41:37;100590.31;;;3.61;82.41
64086;BME280;50333;47.436;21.390;2023-03-04T03:44:05;100594.62;;;3.67;82.99
64086;BME280;50333;47.436;21.390;2023-03-04T03:46:33;100595.63;;;3.91;82.12
64086;BME280;50333;47.436;21.390;2023-03-04T03:49:01;100585.94;;;4.11;81.89
64086;BME280;50333;47.436;21.390;2023-03-04T03:51:29;100588.06;;;3.96;81.73
64086;BME280;50333;47.436;21.390;2023-03-04T03:53:57;100589.69;;;3.90;82.03
64086;BME280;50333;47.436;21.390;2023-03-04T03:56:24;100590.22;;;3.99;82.81
64086;BME280;50333;47.436;21.390;2023-03-04T03:58:52;100585.13;;;4.11;82.32
64086;BME280;50333;47.436;21.390;2023-03-04T04:01:20;100581.00;;;4.10;82.56
64086;BME280;50333;47.436;21.390;2023-03-04T04:03:48;100579.47;;;4.02;83.92
64086;BME280;50333;47.436;21.390;2023-03-04T04:06:15;100579.81;;;4.31;82.30
64086;BME280;50333;47.436;21.390;2023-03-04T04:08:43;100581.09;;;3.71;83.17
64086;BME280;50333;47.436;21.390;2023-03-04T04:11:12;100584.47;;;4.22;82.85
64086;BME280;50333;47.436;21.390;2023-03-04T04:13:39;100578.94;;;3.68;84.74
64086;BME280;50333;47.436;21.390;2023-03-04T04:16:08;100581.62;;;3.80;84.80
64086;BME280;50333;47.436;21.390;2023-03-04T04:18:37;100577.88;;;3.51;85.53
64086;BME280;50333;47.436;21.390;2023-03-04T04:21:04;100573.31;;;3.14;86.68
64086;BME280;50333;47.436;21.390;2023-03-04T04:23:32;100579.78;;;3.24;86.36
64086;BME280;50333;47.436;21.390;2023-03-04T04:26:00;100581.19;;;3.26;87.97
64086;BME280;50333;47.436;21.390;2023-03-04T04:28:28;100581.34;;;3.31;87.42
64086;BME280;50333;47.436;21.390;2023-03-04T04:30:55;100584.41;;;3.15;87.78
64086;BME280;50333;47.436;21.390;2023-03-04T04:33:24;100576.72;;;3.47;86.84
64086;BME280;50333;47.436;21.390;2023-03-04T04:35:51;100582.13;;;3.32;88.36
64086;BME280;50333;47.436;21.390;2023-03-04T04:38:19;100578.12;;;3.04;88.38
64086;BME280;50333;47.436;21.390;2023-03-04T04:40:47;100585.03;;;3.49;86.83
64086;BME280;50333;47.436;21.390;2023-03-04T04:43:15;100580.94;;;3.66;86.04
64086;BME280;50333;47.436;21.390;2023-03-04T04:45:42;100583.75;;;3.26;86.71
64086;BME280;50333;47.436;21.390;2023-03-04T04:48:10;100591.47;;;3.33;87.24
64086;BME280;50333;47.436;21.390;2023-03-04T04:50:38;100582.50;;;3.67;86.27
64086;BME280;50333;47.436;21.390;2023-03-04T04:53:06;100586.13;;;3.28;86.06
64086;BME280;50333;47.436;21.390;2023-03-04T04:55:33;100580.69;;;3.43;85.90
64086;BME280;50333;47.436;21.390;2023-03-04T04:58:01;100575.31;;;3.44;85.13
64086;BME280;50333;47.436;21.390;2023-03-04T05:00:31;100572.63;;;2.87;87.79
64086;BME280;50333;47.436;21.390;2023-03-04T05:02:59;100576.75;;;3.40;85.81
64086;BME280;50333;47.436;21.390;2023-03-04T05:05:27;100580.66;;;3.74;83.72
64086;BME280;50333;47.436;21.390;2023-03-04T05:07:55;100581.66;;;3.10;83.25
64086;BME280;50333;47.436;21.390;2023-03-04T05:10:23;100582.44;;;3.49;82.99
64086;BME280;50333;47.436;21.390;2023-03-04T05:12:50;100577.09;;;2.53;85.85
64086;BME280;50333;47.436;21.390;2023-03-04T05:15:18;100575.87;;;3.14;83.88
64086;BME280;50333;47.436;21.390;2023-03-04T05:17:46;100575.09;;;3.14;84.32
64086;BME280;50333;47.436;21.390;2023-03-04T05:20:13;100580.97;;;3.28;83.00
64086;BME280;50333;47.436;21.390;2023-03-04T05:22:41;100587.84;;;2.17;86.75
64086;BME280;50333;47.436;21.390;2023-03-04T05:25:09;100585.44;;;2.42;87.57
64086;BME280;50333;47.436;21.390;2023-03-04T05:27:37;100583.47;;;2.37;87.19
64086;BME280;50333;47.436;21.390;2023-03-04T05:30:05;100587.41;;;2.40;86.42
64086;BME280;50333;47.436;21.390;2023-03-04T05:32:33;100583.38;;;2.71;85.52
64086;BME280;50333;47.436;21.390;2023-03-04T05:35:01;100588.28;;;2.86;85.16
64086;BME280;50333;47.436;21.390;2023-03-04T05:37:28;100595.22;;;3.30;83.99
64086;BME280;50333;47.436;21.390;2023-03-04T05:39:56;100590.75;;;3.12;84.43
64086;BME280;50333;47.436;21.390;2023-03-04T05:42:24;100588.94;;;3.19;84.38
64086;BME280;50333;47.436;21.390;2023-03-04T05:44:53;100587.34;;;3.57;82.85
64086;BME280;50333;47.436;21.390;2023-03-04T05:47:21;100584.25;;;3.73;81.09
64086;BME280;50333;47.436;21.390;2023-03-04T05:49:49;100578.16;;;3.93;80.01
64086;BME280;50333;47.436;21.390;2023-03-04T05:52:16;100575.72;;;3.98;79.79
64086;BME280;50333;47.436;21.390;2023-03-04T05:54:44;100579.63;;;4.07;79.24
64086;BME280;50333;47.436;21.390;2023-03-04T05:57:12;100586.47;;;3.70;80.48
64086;BME280;50333;47.436;21.390;2023-03-04T05:59:39;100595.56;;;3.72;80.43
64086;BME280;50333;47.436;21.390;2023-03-04T06:02:07;100583.88;;;3.95;79.44
64086;BME280;50333;47.436;21.390;2023-03-04T06:04:35;100579.63;;;4.07;79.42
64086;BME280;50333;47.436;21.390;2023-03-04T06:07:03;100582.97;;;4.14;78.93
64086;BME280;50333;47.436;21.390;2023-03-04T06:09:32;100588.59;;;3.48;78.82
64086;BME280;50333;47.436;21.390;2023-03-04T06:12:00;100594.75;;;3.47;80.71
64086;BME280;50333;47.436;21.390;2023-03-04T06:14:27;100597.44;;;2.68;84.80
64086;BME280;50333;47.436;21.390;2023-03-04T06:16:55;100590.53;;;3.20;83.08
64086;BME280;50333;47.436;21.390;2023-03-04T06:19:23;100598.12;;;3.47;82.72
64086;BME280;50333;47.436;21.390;2023-03-04T06:21:51;100590.63;;;3.39;82.26
64086;BME280;50333;47.436;21.390;2023-03-04T06:24:19;100601.97;;;3.31;83.02
64086;BME280;50333;47.436;21.390;2023-03-04T06:26:47;100598.50;;;3.12;84.30
64086;BME280;50333;47.436;21.390;2023-03-04T06:29:14;100596.78;;;2.93;85.46
64086;BME280;50333;47.436;21.390;2023-03-04T06:31:42;100599.28;;;3.51;83.38
64086;BME280;50333;47.436;21.390;2023-03-04T06:34:10;100613.47;;;3.29;82.74
64086;BME280;50333;47.436;21.390;2023-03-04T06:36:38;100618.00;;;3.97;81.28
64086;BME280;50333;47.436;21.390;2023-03-04T06:39:06;100619.53;;;4.05;80.64
64086;BME280;50333;47.436;21.390;2023-03-04T06:41:34;100621.94;;;3.74;80.00
64086;BME280;50333;47.436;21.390;2023-03-04T06:44:02;100627.16;;;2.71;84.94
64086;BME280;50333;47.436;21.390;2023-03-04T06:46:32;100622.56;;;3.70;82.33
64086;BME280;50333;47.436;21.390;2023-03-04T06:49:00;100617.91;;;3.85;81.25
64086;BME280;50333;47.436;21.390;2023-03-04T06:51:30;100613.69;;;3.91;80.24
64086;BME280;50333;47.436;21.390;2023-03-04T06:53:58;100608.81;;;4.08;80.09
64086;BME280;50333;47.436;21.390;2023-03-04T06:56:26;100619.91;;;3.83;80.16
64086;BME280;50333;47.436;21.390;2023-03-04T06:58:54;100616.84;;;3.93;79.62
64086;BME280;50333;47.436;21.390;2023-03-04T07:01:24;100612.41;;;4.00;79.69
64086;BME280;50333;47.436;21.390;2023-03-04T07:03:53;100606.75;;;4.17;79.62
64086;BME280;50333;47.436;21.390;2023-03-04T07:06:25;100599.53;;;4.44;79.43
64086;BME280;50333;47.436;21.390;2023-03-04T07:08:54;100603.00;;;4.38;78.64
64086;BME280;50333;47.436;21.390;2023-03-04T07:11:23;100602.19;;;4.37;78.66
64086;BME280;50333;47.436;21.390;2023-03-04T07:13:51;100610.81;;;4.49;78.16
64086;BME280;50333;47.436;21.390;2023-03-04T07:16:20;100608.66;;;4.65;77.42
64086;BME280;50333;47.436;21.390;2023-03-04T07:18:49;100605.50;;;4.63;77.65
64086;BME280;50333;47.436;21.390;2023-03-04T07:21:17;100608.44;;;4.48;78.11
64086;BME280;50333;47.436;21.390;2023-03-04T07:23:45;100613.09;;;4.39;78.19
64086;BME280;50333;47.436;21.390;2023-03-04T07:26:13;100612.28;;;4.39;77.51
64086;BME280;50333;47.436;21.390;2023-03-04T07:28:41;100616.81;;;4.43;77.44
64086;BME280;50333;47.436;21.390;2023-03-04T07:31:24;100617.13;;;4.10;78.16
64086;BME280;50333;47.436;21.390;2023-03-04T07:33:59;100612.63;;;4.67;76.96
64086;BME280;50333;47.436;21.390;2023-03-04T07:36:28;100607.38;;;4.56;77.34
64086;BME280;50333;47.436;21.390;2023-03-04T07:38:55;100614.03;;;4.82;76.54
64086;BME280;50333;47.436;21.390;2023-03-04T07:41:25;100616.69;;;4.94;76.08
64086;BME280;50333;47.436;21.390;2023-03-04T07:43:55;100614.41;;;5.04;75.59
64086;BME280;50333;47.436;21.390;2023-03-04T07:46:24;100614.69;;;5.14;75.82
64086;BME280;50333;47.436;21.390;2023-03-04T07:48:54;100608.31;;;4.98;76.23
64086;BME280;50333;47.436;21.390;2023-03-04T07:51:24;100607.31;;;5.29;74.94
64086;BME280;50333;47.436;21.390;2023-03-04T07:53:55;100615.56;;;4.71;76.70
64086;BME280;50333;47.436;21.390;2023-03-04T07:56:25;100607.06;;;5.01;75.15
64086;BME280;50333;47.436;21.390;2023-03-04T07:58:52;100608.03;;;4.88;76.28
64086;BME280;50333;47.436;21.390;2023-03-04T08:01:29;100600.91;;;5.02;75.25
64086;BME280;50333;47.436;21.390;2023-03-04T08:03:57;100609.03;;;4.87;75.83
64086;BME280;50333;47.436;21.390;2023-03-04T08:06:25;100606.56;;;5.10;75.50
64086;BME280;50333;47.436;21.390;2023-03-04T08:08:59;100609.38;;;5.09;75.29
64086;BME280;50333;47.436;21.390;2023-03-04T08:11:28;100612.53;;;5.11;74.04
64086;BME280;50333;47.436;21.390;2023-03-04T08:13:57;100610.47;;;4.83;76.79
64086;BME280;50333;47.436;21.390;2023-03-04T08:16:25;100605.59;;;5.54;74.84
64086;BME280;50333;47.436;21.390;2023-03-04T08:18:56;100598.31;;;5.02;76.41
64086;BME280;50333;47.436;21.390;2023-03-04T08:21:25;100605.34;;;4.58;78.93
64086;BME280;50333;47.436;21.390;2023-03-04T08:23:56;100608.47;;;4.85;75.93
64086;BME280;50333;47.436;21.390;2023-03-04T08:26:26;100605.03;;;5.21;74.70
64086;BME280;50333;47.436;21.390;2023-03-04T08:28:56;100595.66;;;5.39;74.57
64086;BME280;50333;47.436;21.390;2023-03-04T08:31:24;100593.63;;;5.83;74.50
64086;BME280;50333;47.436;21.390;2023-03-04T08:33:52;100599.69;;;5.77;74.04
64086;BME280;50333;47.436;21.390;2023-03-04T08:36:20;100600.31;;;5.60;73.93
64086;BME280;50333;47.436;21.390;2023-03-04T08:38:47;100595.91;;;5.49;73.05
64086;BME280;50333;47.436;21.390;2023-03-04T08:41:15;100597.22;;;5.40;73.32
64086;BME280;50333;47.436;21.390;2023-03-04T08:43:43;100590.84;;;6.32;71.17
64086;BME280;50333;47.436;21.390;2023-03-04T08:46:11;100584.25;;;6.76;69.57
64086;BME280;50333;47.436;21.390;2023-03-04T08:48:38;100577.25;;;7.17;67.99
64086;BME280;50333;47.436;21.390;2023-03-04T08:51:12;100577.16;;;7.58;66.01
64086;BME280;50333;47.436;21.390;2023-03-04T08:53:40;100564.72;;;7.94;65.28
64086;BME280;50333;47.436;21.390;2023-03-04T08:56:12;100566.53;;;7.43;65.03
64086;BME280;50333;47.436;21.390;2023-03-04T08:58:40;100558.66;;;8.05;63.32
64086;BME280;50333;47.436;21.390;2023-03-04T09:01:10;100553.62;;;8.38;62.38
64086;BME280;50333;47.436;21.390;2023-03-04T09:03:39;100548.09;;;8.51;61.82
64086;BME280;50333;47.436;21.390;2023-03-04T09:06:07;100554.25;;;8.45;61.41
64086;BME280;50333;47.436;21.390;2023-03-04T09:08:36;100543.59;;;9.18;59.97
64086;BME280;50333;47.436;21.390;2023-03-04T09:11:04;100538.16;;;8.48;60.68
64086;BME280;50333;47.436;21.390;2023-03-04T09:13:32;100540.28;;;9.00;58.39
64086;BME280;50333;47.436;21.390;2023-03-04T09:16:01;100537.84;;;9.48;56.90
64086;BME280;50333;47.436;21.390;2023-03-04T09:18:29;100532.53;;;9.33;55.91
64086;BME280;50333;47.436;21.390;2023-03-04T09:20:56;100530.25;;;9.41;56.55
64086;BME280;50333;47.436;21.390;2023-03-04T09:23:24;100524.00;;;9.80;55.26
64086;BME280;50333;47.436;21.390;2023-03-04T09:25:52;100525.03;;;9.74;54.51
64086;BME280;50333;47.436;21.390;2023-03-04T09:28:20;100521.13;;;9.76;54.80
64086;BME280;50333;47.436;21.390;2023-03-04T09:30:48;100517.06;;;8.89;57.93
64086;BME280;50333;47.436;21.390;2023-03-04T09:33:17;100517.75;;;9.06;56.51
64086;BME280;50333;47.436;21.390;2023-03-04T09:35:45;100511.78;;;9.11;56.56
64086;BME280;50333;47.436;21.390;2023-03-04T09:38:15;100508.53;;;9.58;55.08
64086;BME280;50333;47.436;21.390;2023-03-04T09:40:47;100512.06;;;9.09;56.40
64086;BME280;50333;47.436;21.390;2023-03-04T09:43:25;100506.88;;;9.47;55.20
64086;BME280;50333;47.436;21.390;2023-03-04T09:45:58;100495.88;;;9.77;53.64
64086;BME280;50333;47.436;21.390;2023-03-04T09:48:28;100501.19;;;9.50;52.99
64086;BME280;50333;47.436;21.390;2023-03-04T09:51:19;100505.81;;;9.85;52.81
64086;BME280;50333;47.436;21.390;2023-03-04T09:54:10;100495.16;;;9.87;52.79
64086;BME280;50333;47.436;21.390;2023-03-04T09:56:42;100489.22;;;10.60;52.15
64086;BME280;50333;47.436;21.390;2023-03-04T09:59:16;100486.12;;;10.68;49.36
64086;BME280;50333;47.436;21.390;2023-03-04T10:01:53;100477.28;;;10.06;50.38
64086;BME280;50333;47.436;21.390;2023-03-04T10:04:48;100480.59;;;10.44;49.26
64086;BME280;50333;47.436;21.390;2023-03-04T10:07:22;100477.50;;;10.72;49.38
64086;BME280;50333;47.436;21.390;2023-03-04T10:09:58;100474.16;;;11.08;47.55
64086;BME280;50333;47.436;21.390;2023-03-04T10:12:29;100461.13;;;10.92;47.08
64086;BME280;50333;47.436;21.390;2023-03-04T10:15:02;100469.47;;;11.15;47.52
64086;BME280;50333;47.436;21.390;2023-03-04T10:17:36;100469.41;;;10.59;48.78
64086;BME280;50333;47.436;21.390;2023-03-04T10:20:14;100466.59;;;11.32;47.56
64086;BME280;50333;47.436;21.390;2023-03-04T10:22:50;100454.78;;;11.60;46.01
64086;BME280;50333;47.436;21.390;2023-03-04T10:25:22;100453.44;;;11.78;45.63
64086;BME280;50333;47.436;21.390;2023-03-04T10:27:55;100462.16;;;11.38;46.38
64086;BME280;50333;47.436;21.390;2023-03-04T10:33:22;100445.66;;;11.52;47.03
64086;BME280;50333;47.436;21.390;2023-03-04T10:36:47;100447.94;;;11.80;46.27
64086;BME280;50333;47.436;21.390;2023-03-04T10:38:48;100446.59;;;11.98;45.91
64086;BME280;50333;47.436;21.390;2023-03-04T10:41:22;100434.41;;;11.67;45.93
64086;BME280;50333;47.436;21.390;2023-03-04T10:46:26;100434.47;;;11.42;47.48
64086;BME280;50333;47.436;21.390;2023-03-04T10:48:54;100424.03;;;11.37;47.29
64086;BME280;50333;47.436;21.390;2023-03-04T10:51:24;100420.78;;;11.81;46.62
64086;BME280;50333;47.436;21.390;2023-03-04T10:54:00;100412.75;;;12.27;44.88
64086;BME280;50333;47.436;21.390;2023-03-04T10:56:37;100417.97;;;11.67;46.41
64086;BME280;50333;47.436;21.390;2023-03-04T11:02:19;100407.59;;;12.17;44.78
64086;BME280;50333;47.436;21.390;2023-03-04T11:04:54;100399.25;;;11.39;45.07
64086;BME280;50333;47.436;21.390;2023-03-04T11:07:24;100399.94;;;11.65;45.08
64086;BME280;50333;47.436;21.390;2023-03-04T11:09:52;100386.00;;;11.85;44.18
64086;BME280;50333;47.436;21.390;2023-03-04T11:12:32;100389.25;;;12.22;44.09
64086;BME280;50333;47.436;21.390;2023-03-04T11:15:02;100389.97;;;11.78;45.12
64086;BME280;50333;47.436;21.390;2023-03-04T11:17:43;100381.50;;;12.06;43.03
64086;BME280;50333;47.436;21.390;2023-03-04T11:20:28;100385.22;;;12.00;42.66
64086;BME280;50333;47.436;21.390;2023-03-04T11:23:02;100374.31;;;11.78;43.01
64086;BME280;50333;47.436;21.390;2023-03-04T11:25:40;100384.84;;;12.17;42.77
64086;BME280;50333;47.436;21.390;2023-03-04T11:28:23;100372.47;;;12.68;43.84
64086;BME280;50333;47.436;21.390;2023-03-04T11:30:59;100368.12;;;12.58;41.50
64086;BME280;50333;47.436;21.390;2023-03-04T11:36:23;100362.91;;;12.53;40.67
64086;BME280;50333;47.436;21.390;2023-03-04T11:38:55;100349.78;;;12.23;41.61
64086;BME280;50333;47.436;21.390;2023-03-04T11:41:31;100344.78;;;12.27;40.35
64086;BME280;50333;47.436;21.390;2023-03-04T11:44:04;100339.13;;;12.15;40.90
64086;BME280;50333;47.436;21.390;2023-03-04T11:49:22;100340.81;;;12.35;40.94
64086;BME280;50333;47.436;21.390;2023-03-04T11:52:17;100330.12;;;12.31;41.11
64086;BME280;50333;47.436;21.390;2023-03-04T11:55:04;100323.06;;;11.87;40.99
64086;BME280;50333;47.436;21.390;2023-03-04T12:01:08;100316.22;;;12.01;39.58
64086;BME280;50333;47.436;21.390;2023-03-04T12:04:07;100314.44;;;11.86;40.86
64086;BME280;50333;47.436;21.390;2023-03-04T12:14:38;100290.06;;;11.57;41.34
64086;BME280;50333;47.436;21.390;2023-03-04T12:22:44;100274.53;;;11.26;41.93
64086;BME280;50333;47.436;21.390;2023-03-04T12:36:54;100254.41;;;11.26;40.71
64086;BME280;50333;47.436;21.390;2023-03-04T12:44:30;100240.25;;;11.48;39.28
64086;BME280;50333;47.436;21.390;2023-03-04T12:47:30;100235.81;;;11.43;39.77
64086;BME280;50333;47.436;21.390;2023-03-04T12:52:47;100229.22;;;11.51;39.82
64086;BME280;50333;47.436;21.390;2023-03-04T12:55:25;100225.59;;;11.97;39.35
64086;BME280;50333;47.436;21.390;2023-03-04T12:57:57;100220.22;;;11.78;37.78
64086;BME280;50333;47.436;21.390;2023-03-04T13:09:20;100208.62;;;11.94;36.77
64086;BME280;50333;47.436;21.390;2023-03-04T13:12:02;100210.31;;;11.75;37.30
64086;BME280;50333;47.436;21.390;2023-03-04T13:14:31;100201.84;;;11.88;37.22
64086;BME280;50333;47.436;21.390;2023-03-04T13:20:35;100185.47;;;11.77;37.31
64086;BME280;50333;47.436;21.390;2023-03-04T13:25:46;100182.75;;;11.58;36.86
64086;BME280;50333;47.436;21.390;2023-03-04T13:59:20;100139.75;;;12.62;34.43
64086;BME280;50333;47.436;21.390;2023-03-04T14:02:24;100126.56;;;12.49;34.41
64086;BME280;50333;47.436;21.390;2023-03-04T14:04:57;100120.50;;;12.53;34.71
64086;BME280;50333;47.436;21.390;2023-03-04T14:07:33;100125.84;;;12.67;34.70
64086;BME280;50333;47.436;21.390;2023-03-04T14:10:17;100123.28;;;12.14;35.47
64086;BME280;50333;47.436;21.390;2023-03-04T14:12:49;100112.56;;;12.82;34.88
64086;BME280;50333;47.436;21.390;2023-03-04T14:15:28;100110.88;;;12.92;34.81
64086;BME280;50333;47.436;21.390;2023-03-04T14:17:58;100105.84;;;12.76;33.67
64086;BME280;50333;47.436;21.390;2023-03-04T14:20:30;100100.69;;;12.90;33.53
64086;BME280;50333;47.436;21.390;2023-03-04T14:23:01;100095.31;;;13.00;33.09
64086;BME280;50333;47.436;21.390;2023-03-04T14:25:34;100092.69;;;12.81;32.87
64086;BME280;50333;47.436;21.390;2023-03-04T14:28:10;100090.72;;;13.11;32.19
64086;BME280;50333;47.436;21.390;2023-03-04T14:30:42;100087.19;;;13.02;31.75
64086;BME280;50333;47.436;21.390;2023-03-04T14:33:23;100085.00;;;13.09;31.98
64086;BME280;50333;47.436;21.390;2023-03-04T14:35:59;100083.88;;;12.96;32.33
64086;BME280;50333;47.436;21.390;2023-03-04T14:38:34;100073.97;;;12.74;33.00
64086;BME280;50333;47.436;21.390;2023-03-04T14:41:16;100071.75;;;12.81;32.54
64086;BME280;50333;47.436;21.390;2023-03-04T14:46:38;100063.25;;;12.52;32.95
64086;BME280;50333;47.436;21.390;2023-03-04T14:49:11;100064.06;;;12.52;33.07